createdAt,value
2023-03-29T00:00:36.050Z,100793.25
2023-03-29T00:03:40.422Z,100793.41
2023-03-29T00:06:43.186Z,100785.91
2023-03-29T00:09:45.990Z,100787.84
2023-03-29T00:12:48.709Z,100805.59
2023-03-29T00:15:51.525Z,100800.75
2023-03-29T00:18:55.428Z,100803.31
2023-03-29T00:21:58.599Z,100818.44
2023-03-29T00:25:01.087Z,100807.22
2023-03-29T00:28:04.120Z,100816.13
2023-03-29T00:31:09.052Z,100816.37
2023-03-29T00:34:11.962Z,100815.75
2023-03-29T00:37:14.899Z,100815.88
2023-03-29T00:40:18.191Z,100820.50
2023-03-29T00:43:21.011Z,100821.59
2023-03-29T00:46:25.180Z,100823.50
2023-03-29T00:49:27.881Z,100824.72
2023-03-29T00:52:32.233Z,100824.50
2023-03-29T00:55:44.262Z,100823.37
2023-03-29T00:58:49.673Z,100817.31
2023-03-29T01:01:57.392Z,100807.47
2023-03-29T01:05:25.949Z,100805.56
2023-03-29T01:08:53.208Z,100803.75
2023-03-29T01:12:02.541Z,100803.22
2023-03-29T01:15:10.456Z,100800.41
2023-03-29T01:18:14.062Z,100784.31
2023-03-29T01:21:29.376Z,100778.22
2023-03-29T01:25:07.129Z,100785.38
2023-03-29T01:28:22.835Z,100780.63
2023-03-29T01:31:34.227Z,100783.66
2023-03-29T01:34:42.312Z,100775.47
2023-03-29T01:38:03.631Z,100774.47
2023-03-29T01:41:07.838Z,100760.78
2023-03-29T01:44:16.545Z,100773.28
2023-03-29T01:48:04.504Z,100772.72
2023-03-29T01:51:11.643Z,100777.81
2023-03-29T01:54:38.300Z,100785.72
2023-03-29T01:57:43.692Z,100790.81
2023-03-29T02:00:46.986Z,100790.09
2023-03-29T02:03:54.910Z,100795.09
2023-03-29T02:06:59.487Z,100799.84
2023-03-29T02:10:03.264Z,100797.50
2023-03-29T02:13:06.261Z,100798.28
2023-03-29T02:16:12.522Z,100803.37
2023-03-29T02:19:17.166Z,100803.69
2023-03-29T02:22:24.848Z,100796.13
2023-03-29T02:25:28.532Z,100798.09
2023-03-29T02:28:33.309Z,100798.09
2023-03-29T02:32:06.044Z,100794.69
2023-03-29T02:35:13.846Z,100792.78
2023-03-29T02:38:17.186Z,100787.69
2023-03-29T02:41:21.101Z,100793.94
2023-03-29T02:44:33.006Z,100794.19
2023-03-29T02:47:38.852Z,100803.22
2023-03-29T02:50:43.763Z,100796.81
2023-03-29T02:53:53.832Z,100795.12
2023-03-29T02:56:59.153Z,100801.50
2023-03-29T03:00:02.170Z,100804.00
2023-03-29T03:03:06.960Z,100801.38
2023-03-29T03:06:09.721Z,100807.31
2023-03-29T03:09:14.821Z,100811.69
2023-03-29T03:12:17.734Z,100819.47
2023-03-29T03:15:21.646Z,100813.59
2023-03-29T03:18:24.345Z,100819.91
2023-03-29T03:21:28.294Z,100822.41
2023-03-29T03:24:32.600Z,100820.63
2023-03-29T03:27:36.989Z,100828.00
2023-03-29T03:30:39.734Z,100818.41
2023-03-29T03:33:54.507Z,100824.88
2023-03-29T03:36:57.748Z,100827.41
2023-03-29T03:40:00.752Z,100826.06
2023-03-29T03:43:04.121Z,100824.44
2023-03-29T03:46:08.594Z,100830.56
2023-03-29T03:49:12.134Z,100825.47
2023-03-29T03:52:15.126Z,100824.69
2023-03-29T03:55:17.976Z,100831.62
2023-03-29T03:58:21.660Z,100836.03
2023-03-29T04:01:24.557Z,100826.72
2023-03-29T04:04:28.821Z,100825.22
2023-03-29T04:07:32.719Z,100837.47
2023-03-29T04:10:36.239Z,100834.84
2023-03-29T04:13:39.613Z,100831.75
2023-03-29T04:16:43.422Z,100830.81
2023-03-29T04:19:48.276Z,100843.06
2023-03-29T04:22:51.858Z,100847.25
2023-03-29T04:25:56.591Z,100844.00
2023-03-29T04:29:01.482Z,100840.00
2023-03-29T04:32:05.587Z,100832.47
2023-03-29T04:35:10.637Z,100835.03
2023-03-29T04:38:13.642Z,100840.22
2023-03-29T04:41:16.660Z,100835.75
2023-03-29T04:44:20.496Z,100838.09
2023-03-29T04:47:23.786Z,100836.16
2023-03-29T04:50:26.631Z,100834.00
2023-03-29T04:53:29.754Z,100831.50
2023-03-29T04:56:32.366Z,100836.13
2023-03-29T04:59:39.262Z,100838.66
2023-03-29T05:02:46.186Z,100837.63
2023-03-29T05:05:49.324Z,100836.47
2023-03-29T05:08:52.358Z,100846.41
2023-03-29T05:11:55.510Z,100846.25
2023-03-29T05:14:58.492Z,100855.59
2023-03-29T05:18:02.736Z,100857.03
2023-03-29T05:21:07.278Z,100851.69
2023-03-29T05:24:12.228Z,100849.63
2023-03-29T05:27:17.214Z,100849.31
2023-03-29T05:30:20.976Z,100850.84
2023-03-29T05:33:24.494Z,100853.06
2023-03-29T05:36:28.362Z,100854.44
2023-03-29T05:39:34.602Z,100848.16
2023-03-29T05:42:40.109Z,100849.44
2023-03-29T05:45:43.010Z,100845.00
2023-03-29T05:48:46.260Z,100856.41
2023-03-29T05:51:49.266Z,100855.03
2023-03-29T05:54:52.092Z,100852.81
2023-03-29T05:57:55.894Z,100858.38
2023-03-29T06:01:00.495Z,100857.06
2023-03-29T06:04:06.159Z,100860.19
2023-03-29T06:07:16.450Z,100857.72
2023-03-29T06:10:20.570Z,100861.66
2023-03-29T06:13:23.488Z,100863.19
2023-03-29T06:16:26.499Z,100870.09
2023-03-29T06:19:29.445Z,100875.88
2023-03-29T06:22:32.593Z,100864.69
2023-03-29T06:25:35.387Z,100866.56
2023-03-29T06:28:38.784Z,100871.75
2023-03-29T06:31:42.185Z,100872.75
2023-03-29T06:34:46.875Z,100869.59
2023-03-29T06:37:53.740Z,100873.75
2023-03-29T06:41:02.534Z,100874.50
2023-03-29T06:44:06.751Z,100872.69
2023-03-29T06:47:10.320Z,100869.50
2023-03-29T06:50:14.633Z,100878.59
2023-03-29T06:53:18.194Z,100878.69
2023-03-29T06:56:22.304Z,100887.91
2023-03-29T06:59:27.740Z,100886.31
2023-03-29T07:02:31.843Z,100877.84
2023-03-29T07:05:40.683Z,100886.41
2023-03-29T07:08:45.081Z,100892.16
2023-03-29T07:11:50.380Z,100892.75
2023-03-29T07:14:53.618Z,100880.03
2023-03-29T07:17:57.542Z,100891.97
2023-03-29T07:21:00.687Z,100890.00
2023-03-29T07:24:04.878Z,100894.41
2023-03-29T07:27:08.819Z,100897.91
2023-03-29T07:30:16.553Z,100894.22
2023-03-29T07:33:19.150Z,100903.59
2023-03-29T07:36:22.825Z,100897.72
2023-03-29T07:39:26.265Z,100903.34
2023-03-29T07:42:32.061Z,100912.41
2023-03-29T07:45:35.793Z,100918.13
2023-03-29T07:48:39.246Z,100914.28
2023-03-29T07:51:42.292Z,100918.44
2023-03-29T07:54:45.938Z,100919.19
2023-03-29T07:57:51.756Z,100917.50
2023-03-29T08:00:54.802Z,100912.59
2023-03-29T08:03:59.968Z,100916.38
2023-03-29T08:07:03.905Z,100903.91
2023-03-29T08:10:09.800Z,100912.22
2023-03-29T08:13:13.418Z,100911.28
2023-03-29T08:16:16.695Z,100910.94
2023-03-29T08:19:19.709Z,100919.34
2023-03-29T08:22:23.460Z,100902.47
2023-03-29T08:25:30.331Z,100901.87
2023-03-29T08:28:33.568Z,100903.88
2023-03-29T08:31:36.752Z,100898.06
2023-03-29T08:34:39.726Z,100902.06
2023-03-29T08:37:43.078Z,100898.28
2023-03-29T08:40:48.896Z,100886.44
2023-03-29T08:44:07.983Z,100889.47
2023-03-29T08:47:40.626Z,100892.75
2023-03-29T08:50:48.117Z,100886.88
2023-03-29T08:53:58.533Z,100890.19
2023-03-29T08:57:14.457Z,100887.31
2023-03-29T09:00:36.541Z,100876.47
2023-03-29T09:03:54.054Z,100871.47
2023-03-29T09:06:58.190Z,100875.78
2023-03-29T09:10:02.188Z,100876.78
2023-03-29T09:13:32.960Z,100873.47
2023-03-29T09:17:07.067Z,100872.75
2023-03-29T09:20:38.802Z,100864.25
2023-03-29T09:23:52.017Z,100857.19
2023-03-29T09:27:10.147Z,100856.25
2023-03-29T09:30:28.650Z,100863.44
2023-03-29T09:33:42.743Z,100848.81
2023-03-29T09:36:59.406Z,100851.69
2023-03-29T09:40:06.856Z,100854.59
2023-03-29T09:43:15.403Z,100844.72
2023-03-29T09:46:24.649Z,100841.13
2023-03-29T09:49:31.629Z,100833.53
2023-03-29T09:52:34.657Z,100827.94
2023-03-29T09:55:40.264Z,100823.09
2023-03-29T09:58:44.749Z,100827.16
2023-03-29T10:01:47.315Z,100828.38
2023-03-29T10:05:00.732Z,100817.25
2023-03-29T10:08:17.146Z,100823.22
2023-03-29T10:11:32.952Z,100814.56
2023-03-29T10:14:38.267Z,100805.31
2023-03-29T10:17:41.229Z,100809.97
2023-03-29T10:20:44.048Z,100807.00
2023-03-29T10:23:48.288Z,100796.50
2023-03-29T10:26:59.360Z,100792.47
2023-03-29T10:30:13.156Z,100790.34
2023-03-29T10:33:19.144Z,100795.00
2023-03-29T10:36:23.151Z,100796.50
2023-03-29T10:39:29.507Z,100792.22
2023-03-29T10:42:32.786Z,100783.59
2023-03-29T10:45:35.911Z,100788.28
2023-03-29T10:48:39.229Z,100781.84
2023-03-29T10:51:45.763Z,100777.16
2023-03-29T10:54:51.062Z,100763.88
2023-03-29T10:58:25.378Z,100752.53
2023-03-29T11:01:59.246Z,100753.03
2023-03-29T11:05:20.622Z,100751.53
2023-03-29T11:08:44.785Z,100753.78
2023-03-29T11:12:04.436Z,100751.50
2023-03-29T11:15:33.576Z,100747.47
2023-03-29T11:19:04.187Z,100742.72
2023-03-29T11:22:15.452Z,100736.69
2023-03-29T11:25:45.588Z,100736.97
2023-03-29T11:28:57.787Z,100724.94
2023-03-29T11:32:04.262Z,100730.09
2023-03-29T11:35:22.414Z,100728.00
2023-03-29T11:38:33.866Z,100726.59
2023-03-29T11:41:41.713Z,100720.31
2023-03-29T11:44:47.037Z,100721.09
2023-03-29T11:47:50.927Z,100710.75
2023-03-29T11:50:58.762Z,100699.22
2023-03-29T11:54:28.848Z,100697.63
2023-03-29T11:57:57.950Z,100692.06
2023-03-29T12:01:09.303Z,100691.78
2023-03-29T12:04:29.683Z,100687.97
2023-03-29T12:07:44.272Z,100688.13
2023-03-29T12:11:00.560Z,100681.53
2023-03-29T12:14:09.986Z,100678.34
2023-03-29T12:17:17.249Z,100685.91
2023-03-29T12:20:26.924Z,100682.00
2023-03-29T12:23:33.603Z,100673.97
2023-03-29T12:27:08.441Z,100664.84
2023-03-29T12:30:29.619Z,100662.12
2023-03-29T12:34:11.696Z,100679.50
2023-03-29T12:37:24.819Z,100661.78
2023-03-29T12:40:39.636Z,100656.75
2023-03-29T12:43:52.343Z,100651.22
2023-03-29T12:46:58.596Z,100640.97
2023-03-29T12:50:01.705Z,100646.50
2023-03-29T12:53:18.994Z,100649.19
2023-03-29T12:56:36.750Z,100651.38
2023-03-29T12:59:44.906Z,100643.63
2023-03-29T13:03:22.118Z,100648.25
2023-03-29T13:06:48.488Z,100658.09
2023-03-29T13:09:52.928Z,100646.22
2023-03-29T13:12:55.511Z,100650.00
2023-03-29T13:16:12.790Z,100648.50
2023-03-29T13:19:39.978Z,100641.50
2023-03-29T13:23:01.879Z,100633.13
2023-03-29T13:26:49.622Z,100632.59
2023-03-29T13:30:20.986Z,100626.72
2023-03-29T13:33:26.594Z,100626.41
2023-03-29T13:36:40.630Z,100620.19
2023-03-29T13:39:53.940Z,100617.44
2023-03-29T13:43:19.284Z,100620.66
2023-03-29T13:46:46.123Z,100617.47
2023-03-29T13:50:17.836Z,100605.78
2023-03-29T13:53:40.918Z,100599.91
2023-03-29T13:57:04.104Z,100592.59
2023-03-29T14:00:20.078Z,100598.62
2023-03-29T14:03:30.015Z,100594.28
2023-03-29T14:06:36.659Z,100595.34
2023-03-29T14:09:43.990Z,100598.25
2023-03-29T14:12:47.018Z,100585.56
2023-03-29T14:15:50.512Z,100586.94
2023-03-29T14:18:53.172Z,100588.28
2023-03-29T14:21:58.044Z,100594.16
2023-03-29T14:25:14.027Z,100592.22
2023-03-29T14:28:25.950Z,100590.22
2023-03-29T14:31:34.166Z,100582.59
2023-03-29T14:34:37.649Z,100581.12
2023-03-29T14:37:42.392Z,100580.06
2023-03-29T14:40:45.706Z,100569.47
2023-03-29T14:43:48.620Z,100573.50
2023-03-29T14:46:51.462Z,100575.03
2023-03-29T14:49:56.940Z,100562.84
2023-03-29T14:53:00.131Z,100562.81
2023-03-29T14:56:03.371Z,100560.78
2023-03-29T14:59:27.406Z,100568.00
2023-03-29T15:02:32.312Z,100566.84
2023-03-29T15:05:43.911Z,100575.84
2023-03-29T15:09:01.504Z,100564.09
2023-03-29T15:12:13.774Z,100566.63
2023-03-29T15:15:16.865Z,100554.00
2023-03-29T15:18:24.630Z,100561.88
2023-03-29T15:21:32.249Z,100557.94
2023-03-29T15:24:42.548Z,100562.44
2023-03-29T15:27:49.637Z,100561.00
2023-03-29T15:31:07.327Z,100559.34
2023-03-29T15:34:12.534Z,100554.19
2023-03-29T15:37:18.344Z,100555.75
2023-03-29T15:40:24.371Z,100549.03
2023-03-29T15:43:27.464Z,100557.44
2023-03-29T15:46:31.723Z,100545.69
2023-03-29T15:49:36.853Z,100535.34
2023-03-29T15:52:39.643Z,100538.00
2023-03-29T15:55:45.474Z,100537.28
2023-03-29T15:58:51.058Z,100542.63
2023-03-29T16:01:58.325Z,100529.91
2023-03-29T16:05:01.730Z,100530.47
2023-03-29T16:08:04.483Z,100533.53
2023-03-29T16:11:07.568Z,100532.69
2023-03-29T16:14:31.615Z,100532.28
2023-03-29T16:17:34.707Z,100531.44
2023-03-29T16:20:38.334Z,100524.19
2023-03-29T16:23:42.926Z,100520.81
2023-03-29T16:26:46.060Z,100518.59
2023-03-29T16:29:49.034Z,100519.00
2023-03-29T16:32:51.923Z,100517.47
2023-03-29T16:35:55.165Z,100517.63
2023-03-29T16:38:58.270Z,100522.63
2023-03-29T16:42:01.360Z,100516.62
2023-03-29T16:45:04.793Z,100512.16
2023-03-29T16:48:13.353Z,100504.91
2023-03-29T16:51:16.336Z,100510.75
2023-03-29T16:54:19.459Z,100515.37
2023-03-29T16:57:22.274Z,100521.53
2023-03-29T17:00:27.569Z,100521.38
2023-03-29T17:03:30.327Z,100514.94
2023-03-29T17:06:33.319Z,100510.03
2023-03-29T17:09:36.345Z,100518.41
2023-03-29T17:12:42.649Z,100516.03
2023-03-29T17:15:45.383Z,100516.88
2023-03-29T17:18:48.562Z,100510.16
2023-03-29T17:21:54.085Z,100523.09
2023-03-29T17:24:57.226Z,100508.44
2023-03-29T17:28:00.622Z,100514.44
2023-03-29T17:31:28.006Z,100517.06
2023-03-29T17:34:53.696Z,100525.09
2023-03-29T17:37:58.034Z,100528.44
2023-03-29T17:41:03.006Z,100528.25
2023-03-29T17:44:09.734Z,100529.63
2023-03-29T17:47:12.734Z,100537.16
2023-03-29T17:50:16.562Z,100531.19
2023-03-29T17:53:20.188Z,100541.63
2023-03-29T17:56:28.657Z,100535.81
2023-03-29T17:59:32.055Z,100541.22
2023-03-29T18:02:35.647Z,100540.94
2023-03-29T18:05:39.074Z,100538.81
2023-03-29T18:08:45.679Z,100547.91
2023-03-29T18:11:48.976Z,100544.69
2023-03-29T18:14:56.691Z,100546.41
2023-03-29T18:18:02.355Z,100545.00
2023-03-29T18:21:10.952Z,100547.72
2023-03-29T18:24:14.626Z,100552.56
2023-03-29T18:27:23.354Z,100558.84
2023-03-29T18:30:27.865Z,100560.91
2023-03-29T18:33:35.466Z,100563.78
2023-03-29T18:36:42.520Z,100558.63
2023-03-29T18:39:47.391Z,100565.94
2023-03-29T18:42:52.389Z,100561.53
2023-03-29T18:45:55.383Z,100553.59
2023-03-29T18:49:00.119Z,100558.63
2023-03-29T18:52:06.093Z,100563.56
2023-03-29T18:55:10.400Z,100558.87
2023-03-29T18:58:14.870Z,100556.09
2023-03-29T19:01:18.832Z,100558.16
2023-03-29T19:04:22.096Z,100555.97
2023-03-29T19:07:26.284Z,100552.88
2023-03-29T19:10:30.568Z,100565.41
2023-03-29T19:13:34.690Z,100559.28
2023-03-29T19:16:40.837Z,100560.09
2023-03-29T19:19:45.713Z,100556.88
2023-03-29T19:22:48.336Z,100563.16
2023-03-29T19:26:02.466Z,100566.91
2023-03-29T19:29:06.425Z,100558.69
2023-03-29T19:32:09.695Z,100571.22
2023-03-29T19:35:13.336Z,100570.78
2023-03-29T19:38:16.572Z,100569.81
2023-03-29T19:41:19.329Z,100569.34
2023-03-29T19:44:25.803Z,100567.41
2023-03-29T19:47:28.653Z,100570.31
2023-03-29T19:50:32.069Z,100569.47
2023-03-29T19:53:38.245Z,100574.50
2023-03-29T19:56:44.083Z,100560.81
2023-03-29T19:59:46.870Z,100568.31
2023-03-29T20:02:49.987Z,100563.06
2023-03-29T20:05:52.949Z,100568.38
2023-03-29T20:08:56.450Z,100563.06
2023-03-29T20:11:59.762Z,100559.53
2023-03-29T20:15:02.978Z,100565.72
2023-03-29T20:18:06.248Z,100565.53
2023-03-29T20:21:09.349Z,100563.06
2023-03-29T20:24:12.613Z,100558.16
2023-03-29T20:27:15.855Z,100557.44
2023-03-29T20:30:19.058Z,100559.25
2023-03-29T20:33:22.156Z,100558.28
2023-03-29T20:36:26.704Z,100551.06
2023-03-29T20:39:31.381Z,100542.66
2023-03-29T20:42:36.635Z,100548.28
2023-03-29T20:45:52.212Z,100541.19
2023-03-29T20:48:56.770Z,100543.97
2023-03-29T20:51:59.916Z,100544.91
2023-03-29T20:55:08.470Z,100534.12
2023-03-29T20:58:11.043Z,100533.09
2023-03-29T21:01:14.728Z,100539.47
2023-03-29T21:04:17.947Z,100528.19
2023-03-29T21:07:21.701Z,100528.87
2023-03-29T21:10:25.905Z,100532.63
2023-03-29T21:13:33.774Z,100542.75
2023-03-29T21:16:41.659Z,100535.03
2023-03-29T21:19:44.539Z,100539.16
2023-03-29T21:22:47.268Z,100538.19
2023-03-29T21:25:50.083Z,100530.12
2023-03-29T21:28:52.837Z,100528.56
2023-03-29T21:31:55.993Z,100524.03
2023-03-29T21:34:58.598Z,100529.91
2023-03-29T21:38:02.029Z,100532.81
2023-03-29T21:41:05.502Z,100534.38
2023-03-29T21:44:09.251Z,100524.75
2023-03-29T21:47:11.770Z,100522.22
2023-03-29T21:50:15.153Z,100527.66
2023-03-29T21:53:18.358Z,100526.22
2023-03-29T21:56:22.472Z,100525.88
2023-03-29T21:59:28.607Z,100524.19
2023-03-29T22:02:31.640Z,100520.59
2023-03-29T22:05:35.008Z,100509.16
2023-03-29T22:08:41.325Z,100524.66
2023-03-29T22:11:44.895Z,100521.66
2023-03-29T22:14:47.552Z,100519.03
2023-03-29T22:17:50.584Z,100520.97
2023-03-29T22:20:53.850Z,100522.63
2023-03-29T22:23:57.880Z,100516.97
2023-03-29T22:27:00.783Z,100521.78
2023-03-29T22:30:05.661Z,100524.56
2023-03-29T22:33:08.360Z,100520.97
2023-03-29T22:36:19.593Z,100520.59
2023-03-29T22:39:22.238Z,100520.62
2023-03-29T22:42:25.288Z,100515.69
2023-03-29T22:45:27.968Z,100527.69
2023-03-29T22:48:31.085Z,100525.44
2023-03-29T22:51:33.602Z,100536.00
2023-03-29T22:54:36.622Z,100528.66
2023-03-29T22:57:39.214Z,100532.06
2023-03-29T23:00:42.033Z,100526.75
2023-03-29T23:03:44.580Z,100530.34
2023-03-29T23:06:47.407Z,100532.78
2023-03-29T23:09:50.603Z,100532.41
2023-03-29T23:12:53.702Z,100527.97
2023-03-29T23:15:58.850Z,100531.56
2023-03-29T23:19:02.756Z,100534.91
2023-03-29T23:22:07.390Z,100531.81
2023-03-29T23:25:10.753Z,100534.94
2023-03-29T23:28:21.549Z,100533.84
2023-03-29T23:31:24.702Z,100534.69
2023-03-29T23:34:27.638Z,100534.66
2023-03-29T23:37:30.649Z,100535.13
2023-03-29T23:40:33.400Z,100533.69
2023-03-29T23:43:40.569Z,100533.44
2023-03-29T23:46:43.347Z,100536.31
2023-03-29T23:49:46.814Z,100536.06
2023-03-29T23:52:51.664Z,100531.22
2023-03-29T23:56:00.405Z,100528.03
2023-03-29T23:59:03.384Z,100529.72
